Time;durP1;ratioP1;P1;durP2;ratioP2;P2;SDS_P1;SDS_P2;PMS_P1;PMS_P2;Temp;Humidity;BMP_temperature;BMP_pressure;BME280_temperature;BME280_humidity;BME280_pressure;Samples;Min_cycle;Max_cycle;Signal;HPM_P1;HPM_P2
2022/11/08 00:01:30;;;;;;;43.05;22.73;;;;;;;6.77;80.91;98827.22;1723941;83;25663;-63
2022/11/08 00:02:50;;;;;;;77.10;41.40;;;;;;;6.38;80.43;98832.12;1686618;85;25601;-63
2022/11/08 00:16:17;;;;;;;77.37;32.83;;;;;;;6.25;81.32;98834.36;1669192;86;25707;-63
2022/11/08 00:18:43;;;;;;;48.83;20.85;;;;;;;6.24;81.32;98836.00;1669620;86;25699;-63
2022/11/08 00:21:09;;;;;;;50.92;23.15;;;;;;;6.23;81.34;98839.29;1669550;86;25831;-63
2022/11/08 00:23:36;;;;;;;49.75;23.38;;;;;;;6.22;81.61;98832.20;1669204;86;25449;-63
2022/11/08 00:26:02;;;;;;;32.40;15.45;;;;;;;6.24;82.08;98836.00;1669687;86;27490;-63
2022/11/08 00:28:28;;;;;;;20.80;10.75;;;;;;;6.23;82.21;98833.84;1669217;86;25634;-63
2022/11/08 00:30:55;;;;;;;25.88;11.20;;;;;;;6.24;82.62;98830.56;1669330;86;25475;-64
2022/11/08 00:33:21;;;;;;;27.02;12.25;;;;;;;6.23;83.14;98827.58;1684160;85;25820;-63
2022/11/08 00:35:47;;;;;;;18.25;9.35;;;;;;;6.24;83.40;98828.66;1669218;86;25498;-63
2022/11/08 00:38:14;;;;;;;35.92;14.23;;;;;;;6.27;83.46;98838.98;1669517;86;27371;-64
2022/11/08 00:40:41;;;;;;;23.60;12.05;;;;;;;6.30;83.07;98836.24;1669126;86;25683;-64
2022/11/08 00:43:07;;;;;;;15.70;9.28;;;;;;;6.26;82.68;98840.09;1684379;85;25699;-64
2022/11/08 00:45:33;;;;;;;170.05;45.38;;;;;;;6.26;83.01;98833.83;1669182;86;25890;-63
2022/11/08 00:48:00;;;;;;;118.50;53.25;;;;;;;6.31;83.44;98830.27;1684145;85;25669;-64
2022/11/08 00:50:26;;;;;;;66.80;17.82;;;;;;;6.36;83.61;98830.24;1669124;86;27522;-63
2022/11/08 00:52:52;;;;;;;20.72;8.28;;;;;;;6.43;83.82;98828.02;1669220;86;25759;-64
2022/11/08 00:55:18;;;;;;;52.35;16.07;;;;;;;6.50;84.23;98826.32;1671902;84;25511;-64
2022/11/08 00:57:45;;;;;;;32.20;12.13;;;;;;;6.57;83.86;98830.10;1694103;84;25715;-63
2022/11/08 01:00:13;;;;;;;13.70;7.05;;;;;;;6.62;83.82;98820.55;1694122;84;25619;-63
2022/11/08 01:02:40;;;;;;;16.35;8.63;;;;;;;6.67;83.65;98828.66;1694194;84;28155;-64
2022/11/08 01:05:07;;;;;;;21.25;10.60;;;;;;;6.71;83.54;98824.83;1693870;84;25690;-64
2022/11/08 01:07:34;;;;;;;16.40;9.40;;;;;;;6.70;83.12;98831.36;1694088;84;25520;-63
2022/11/08 01:10:01;;;;;;;20.43;11.20;;;;;;;6.66;82.82;98832.49;1694136;84;26335;-63
2022/11/08 01:12:27;;;;;;;24.85;12.90;;;;;;;6.60;82.22;98834.98;1694062;84;25501;-63
2022/11/08 01:14:54;;;;;;;37.93;21.25;;;;;;;6.46;81.78;98836.98;1694164;84;27577;-63
2022/11/08 01:17:21;;;;;;;28.00;14.05;;;;;;;6.35;82.18;98834.86;1694345;84;25668;-63
2022/11/08 01:19:48;;;;;;;35.28;18.45;;;;;;;6.27;82.17;98832.72;1694432;84;25712;-63
2022/11/08 01:22:14;;;;;;;31.12;17.07;;;;;;;6.15;81.77;98831.16;1694405;84;25746;-63
2022/11/08 01:24:41;;;;;;;22.80;12.70;;;;;;;6.08;82.27;98824.39;1694065;84;25712;-63
2022/11/08 01:27:08;;;;;;;31.50;14.07;;;;;;;6.05;82.76;98829.86;1694026;84;27569;-63
2022/11/08 01:29:34;;;;;;;21.40;11.10;;;;;;;6.07;83.66;98821.42;1693956;84;25445;-63
2022/11/08 01:32:01;;;;;;;22.60;11.53;;;;;;;6.09;84.35;98818.67;1694157;84;25676;-63
2022/11/08 01:34:27;;;;;;;21.05;11.45;;;;;;;6.16;84.28;98827.87;1694024;84;25775;-63
2022/11/08 01:36:54;;;;;;;18.07;7.78;;;;;;;6.19;84.29;98823.23;1694351;84;25470;-63
2022/11/08 01:39:20;;;;;;;16.65;7.55;;;;;;;6.25;85.98;98819.39;1694491;84;27484;-63
2022/11/08 01:41:47;;;;;;;14.35;7.90;;;;;;;6.40;85.96;98816.33;1694583;84;25595;-63
2022/11/08 01:44:17;;;;;;;13.62;8.45;;;;;;;6.50;86.83;98814.06;1694051;84;25437;-63
2022/11/08 01:46:45;;;;;;;14.50;7.40;;;;;;;6.60;86.24;98805.03;1693929;84;27829;-63
2022/11/08 01:49:23;;;;;;;21.35;10.03;;;;;;;6.68;85.72;98806.34;1694363;84;25603;-64
2022/11/08 01:52:11;;;;;;;11.25;5.75;;;;;;;6.75;85.73;98809.00;1693857;84;27417;-64
2022/11/08 01:54:52;;;;;;;14.35;6.95;;;;;;;6.82;86.08;98810.59;1693992;84;25460;-63
2022/11/08 01:57:35;;;;;;;10.50;6.60;;;;;;;6.86;85.10;98815.19;1692644;84;25671;-64
2022/11/08 02:00:07;;;;;;;12.95;6.22;;;;;;;6.88;84.90;98810.25;1694328;84;25722;-64
2022/11/08 02:02:36;;;;;;;16.62;10.30;;;;;;;6.91;84.54;98811.61;1694331;84;25591;-64
2022/11/08 02:05:06;;;;;;;11.35;6.53;;;;;;;6.93;84.69;98809.39;1694037;84;27473;-64
2022/11/08 02:07:34;;;;;;;9.97;6.67;;;;;;;6.96;84.51;98808.00;1694563;84;25592;-64
2022/11/08 02:10:02;;;;;;;14.68;8.98;;;;;;;6.95;84.10;98807.20;1694323;84;25477;-64
2022/11/08 02:12:30;;;;;;;17.37;9.85;;;;;;;6.94;84.14;98809.64;1693972;84;25733;-64
2022/11/08 02:14:56;;;;;;;19.30;9.58;;;;;;;6.88;83.71;98808.88;1694351;84;25618;-64
2022/11/08 02:17:23;;;;;;;20.00;10.55;;;;;;;6.83;83.80;98816.30;1694023;84;27417;-64
2022/11/08 02:19:50;;;;;;;21.82;12.10;;;;;;;6.75;83.77;98804.92;1694061;84;25656;-64
2022/11/08 02:22:28;;;;;;;19.67;10.25;;;;;;;6.68;83.83;98801.69;1694251;84;25606;-64
2022/11/08 02:24:59;;;;;;;15.15;8.85;;;;;;;6.65;84.57;98798.98;1694038;84;25835;-63
2022/11/08 02:27:25;;;;;;;;;;;;;;;6.64;84.51;98795.19;1696767;84;25646;-64
2022/11/08 02:29:54;;;;;;;24.95;15.93;;;;;;;6.64;84.67;98794.65;1694363;84;27513;-64
2022/11/08 02:32:21;;;;;;;14.53;9.55;;;;;;;6.62;84.78;98794.11;1694287;84;25659;-64
2022/11/08 02:34:55;;;;;;;16.35;10.13;;;;;;;6.63;84.94;98790.84;1694345;84;25588;-64
2022/11/08 02:37:25;;;;;;;19.42;12.07;;;;;;;6.67;84.63;98791.11;1694496;84;25676;-64
2022/11/08 02:39:51;;;;;;;14.53;8.63;;;;;;;6.68;84.78;98791.36;1694411;84;25648;-64
2022/11/08 02:42:19;;;;;;;25.57;12.60;;;;;;;6.71;84.92;98793.52;1693998;84;27473;-64
2022/11/08 02:44:47;;;;;;;18.30;9.50;;;;;;;6.72;84.73;98788.32;1694042;84;25530;-64
2022/11/08 02:47:14;;;;;;;19.30;9.30;;;;;;;6.72;84.78;98785.59;1694160;84;25611;-64
2022/11/08 02:49:40;;;;;;;17.67;11.10;;;;;;;6.74;84.54;98784.77;1694403;84;26256;-64
2022/11/08 02:52:07;;;;;;;21.33;13.55;;;;;;;6.75;84.48;98791.84;1694134;84;25461;-64
2022/11/08 02:54:33;;;;;;;14.95;9.55;;;;;;;6.74;84.22;98790.22;1694175;84;29590;-64
2022/11/08 02:57:00;;;;;;;16.75;8.73;;;;;;;6.71;84.26;98788.86;1688509;84;25429;-64
2022/11/08 02:59:26;;;;;;;20.43;11.48;;;;;;;6.63;83.54;98787.59;1684247;85;25449;-64
2022/11/08 03:01:53;;;;;;;23.30;12.78;;;;;;;6.47;82.77;98788.77;1684176;85;25824;-64
2022/11/08 03:04:19;;;;;;;22.40;14.00;;;;;;;6.34;82.74;98786.15;1684441;85;25648;-64
2022/11/08 03:06:46;;;;;;;18.05;11.28;;;;;;;6.15;82.64;98788.16;1684200;85;27525;-64
2022/11/08 03:09:12;;;;;;;31.23;14.15;;;;;;;5.98;83.42;98781.69;1684276;85;25435;-63
2022/11/08 03:11:39;;;;;;;23.10;13.43;;;;;;;5.90;83.20;98789.34;1684402;85;25616;-64
2022/11/08 03:14:05;;;;;;;27.13;14.38;;;;;;;5.80;83.08;98798.92;1684168;85;25735;-63
2022/11/08 03:16:31;;;;;;;28.00;17.35;;;;;;;5.68;82.93;98794.34;1684213;85;25670;-63
2022/11/08 03:18:58;;;;;;;31.00;20.65;;;;;;;5.52;83.04;98791.13;1684492;85;27467;-64
2022/11/08 03:21:24;;;;;;;30.77;20.37;;;;;;;5.42;83.59;98789.81;1684487;85;25651;-64
2022/11/08 03:23:51;;;;;;;28.60;17.07;;;;;;;5.36;83.56;98788.98;1684143;85;25446;-64
2022/11/08 03:26:17;;;;;;;27.67;14.85;;;;;;;5.34;84.04;98780.85;1684174;85;25842;-64
2022/11/08 03:28:43;;;;;;;20.08;13.35;;;;;;;5.31;83.91;98785.48;1684213;85;25685;-64
2022/11/08 03:31:10;;;;;;;19.67;10.93;;;;;;;5.38;84.44;98780.02;1684388;85;27549;-64
2022/11/08 03:33:36;;;;;;;16.55;10.93;;;;;;;5.47;85.62;98787.63;1684058;85;25686;-64
2022/11/08 03:36:04;;;;;;;19.87;12.20;;;;;;;5.60;86.41;98777.52;1684239;85;25575;-64
2022/11/08 03:38:30;;;;;;;17.10;10.48;;;;;;;5.77;86.98;98785.88;1684113;85;25723;-64
2022/11/08 03:40:58;;;;;;;19.32;12.65;;;;;;;5.88;87.01;98783.36;1684292;85;25613;-64
2022/11/08 03:43:26;;;;;;;17.52;9.83;;;;;;;5.99;86.98;98785.48;1684423;85;27466;-64
2022/11/08 03:45:52;;;;;;;17.73;9.30;;;;;;;6.11;87.76;98785.75;1684300;85;25632;-64
2022/11/08 03:48:19;;;;;;;13.83;7.35;;;;;;;6.22;87.16;98787.86;1684180;85;25631;-64
2022/11/08 03:50:45;;;;;;;12.93;7.80;;;;;;;6.32;87.76;98790.52;1684279;85;25724;-64
2022/11/08 03:53:12;;;;;;;14.15;7.55;;;;;;;6.44;87.65;98790.16;1684349;85;25594;-64
2022/11/08 03:55:38;;;;;;;12.58;6.70;;;;;;;6.53;87.29;98793.91;1684170;85;29576;-64
2022/11/08 03:58:04;;;;;;;13.75;8.60;;;;;;;6.63;87.65;98794.93;1692760;84;25492;-64
2022/11/08 04:00:31;;;;;;;14.33;8.15;;;;;;;6.72;86.91;98795.95;1694486;84;25690;-64
2022/11/08 04:03:02;;;;;;;17.27;10.63;;;;;;;6.81;86.83;98796.69;1694118;84;25839;-64
2022/11/08 04:05:31;;;;;;;14.55;8.65;;;;;;;6.86;86.70;98792.57;1694436;84;25473;-64
2022/11/08 04:08:00;;;;;;;14.40;8.85;;;;;;;6.92;86.53;98798.23;1694154;84;28481;-64
2022/11/08 04:10:26;;;;;;;14.65;8.95;;;;;;;6.95;86.49;98792.22;1694499;84;25670;-64
2022/11/08 04:15:37;;;;;;;21.05;10.70;;;;;;;6.97;86.43;98780.47;1694103;84;25712;-64
2022/11/08 04:23:36;;;;;;;20.97;11.78;;;;;;;6.87;86.21;98779.20;1694064;84;25607;-64
2022/11/08 04:26:07;;;;;;;20.72;9.43;;;;;;;6.83;86.27;98772.17;1694129;84;25638;-64
2022/11/08 04:28:35;;;;;;;;;;;;;;;6.82;86.38;98781.42;1696985;84;25938;-64
2022/11/08 04:31:05;;;;;;;23.20;10.72;;;;;;;6.81;86.50;98778.98;1694132;84;25413;-63
2022/11/08 04:33:32;;;;;;;35.58;16.23;;;;;;;6.79;86.49;98777.91;1694300;84;27433;-63
2022/11/08 04:36:05;;;;;;;33.90;14.95;;;;;;;6.80;86.56;98777.36;1694018;84;26062;-63
2022/11/08 04:38:32;;;;;;;44.03;17.87;;;;;;;6.82;86.56;98777.91;1694394;84;25663;-63
2022/11/08 04:41:09;;;;;;;31.77;16.25;;;;;;;6.82;86.35;98774.61;1694416;84;25731;-63
2022/11/08 04:43:35;;;;;;;43.78;27.32;;;;;;;6.84;86.28;98768.88;1692658;84;25437;-63
2022/11/08 04:46:12;;;;;;;50.30;33.42;;;;;;;6.86;86.13;98772.96;1694088;84;27610;-63
2022/11/08 04:48:39;;;;;;;48.80;26.65;;;;;;;6.87;85.97;98764.22;1694439;84;25481;-63
2022/11/08 04:51:10;;;;;;;35.90;18.12;;;;;;;6.88;86.04;98769.38;1694172;84;25638;-63
2022/11/08 04:53:36;;;;;;;23.32;12.90;;;;;;;6.90;85.88;98763.11;1693631;84;25793;-63
2022/11/08 04:56:07;;;;;;;105.22;46.08;;;;;;;6.92;85.70;98762.00;1694058;84;25469;-63
2022/11/08 04:58:37;;;;;;;27.55;16.12;;;;;;;6.90;85.76;98758.20;1694204;82;27415;-63
2022/11/08 05:01:06;;;;;;;27.97;17.50;;;;;;;6.90;85.64;98759.02;1694528;84;25460;-64
2022/11/08 05:03:33;;;;;;;30.35;13.43;;;;;;;6.90;85.63;98759.02;1694176;84;25595;-63
2022/11/08 05:06:03;;;;;;;49.03;17.23;;;;;;;6.88;85.40;98760.41;1694002;84;25717;-63
2022/11/08 05:08:30;;;;;;;27.13;12.67;;;;;;;6.84;85.34;98771.06;1692927;84;25683;-63
2022/11/08 05:11:06;;;;;;;25.10;13.13;;;;;;;6.64;83.23;98770.14;1694073;84;27433;-63
2022/11/08 05:13:34;;;;;;;26.80;15.10;;;;;;;6.17;81.82;98771.02;1694582;84;25603;-63
2022/11/08 05:16:04;;;;;;;29.35;16.82;;;;;;;5.72;82.35;98770.39;1693979;84;25698;-63
2022/11/08 05:18:31;;;;;;;28.97;14.60;;;;;;;5.45;83.11;98774.84;1694656;84;25799;-63
2022/11/08 05:23:47;;;;;;;26.85;14.18;;;;;;;5.10;83.56;98775.45;1694104;84;25598;-63
2022/11/08 05:26:15;;;;;;;20.30;12.58;;;;;;;4.97;83.88;98770.59;1693977;84;25682;-63
2022/11/08 05:28:47;;;;;;;23.90;13.10;;;;;;;4.98;84.55;98783.11;1694422;84;25680;-63
2022/11/08 05:31:14;;;;;;;21.27;12.73;;;;;;;5.00;84.75;98780.91;1694061;84;26304;-63
2022/11/08 05:33:41;;;;;;;22.27;12.33;;;;;;;5.02;84.57;98782.83;1694453;84;25393;-63
2022/11/08 05:36:12;;;;;;;22.35;12.35;;;;;;;5.05;85.03;98777.38;1693977;84;27508;-63
2022/11/08 05:38:41;;;;;;;18.90;11.85;;;;;;;5.04;84.71;98786.63;1693944;84;43072;-63
2022/11/08 05:41:16;;;;;;;22.00;12.45;;;;;;;5.03;84.90;98784.44;1694018;84;25468;-64
2022/11/08 05:43:46;;;;;;;24.23;11.97;;;;;;;5.02;85.15;98793.16;1694269;84;26464;-63
2022/11/08 05:46:13;;;;;;;26.33;12.88;;;;;;;5.01;85.21;98786.08;1694255;84;25615;-63
2022/11/08 05:48:42;;;;;;;27.58;13.80;;;;;;;5.00;85.56;98783.63;1694049;84;27404;-63
2022/11/08 05:51:11;;;;;;;20.70;12.93;;;;;;;5.01;85.65;98784.72;1694372;84;25733;-64
2022/11/08 05:53:39;;;;;;;27.95;15.23;;;;;;;5.02;85.74;98780.11;1693887;84;25686;-63
2022/11/08 05:56:06;;;;;;;49.58;20.80;;;;;;;5.01;85.79;98782.56;1690980;84;26537;-63
2022/11/08 05:58:34;;;;;;;24.47;14.20;;;;;;;5.02;85.89;98787.72;1693246;84;25634;-64
2022/11/08 06:01:12;;;;;;;25.62;13.83;;;;;;;4.98;85.65;98789.90;1731020;82;27436;-64
2022/11/08 06:03:39;;;;;;;22.25;13.53;;;;;;;4.97;85.68;98786.89;1729544;82;25475;-64
2022/11/08 06:06:19;;;;;;;49.80;19.87;;;;;;;4.95;85.56;98785.80;1731350;82;25630;-64
2022/11/08 06:08:45;;;;;;;47.80;21.12;;;;;;;4.97;85.73;98790.43;1731375;82;25655;-64
2022/11/08 06:11:15;;;;;;;55.17;23.87;;;;;;;5.02;86.42;98790.97;1730989;82;25681;-64
2022/11/08 06:13:43;;;;;;;33.25;15.98;;;;;;;5.13;86.94;98790.42;1731395;82;27345;-64
2022/11/08 06:16:12;;;;;;;33.75;16.40;;;;;;;5.19;86.17;98800.72;1731161;82;25169;-64
2022/11/08 06:18:39;;;;;;;29.95;15.18;;;;;;;5.26;86.91;98795.81;1731380;82;25430;-64
2022/11/08 06:21:10;;;;;;;34.92;15.80;;;;;;;5.30;85.98;98794.73;1730979;82;25724;-64
2022/11/08 06:23:37;;;;;;;27.77;14.25;;;;;;;5.18;85.52;98795.83;1731744;82;31418;-64
2022/11/08 06:26:03;;;;;;;31.62;17.23;;;;;;;5.00;85.47;98799.92;1731037;82;27476;-64
2022/11/08 06:28:30;;;;;;;33.20;18.82;;;;;;;4.86;85.83;98803.20;1731328;82;25516;-64
2022/11/08 06:31:01;;;;;;;47.33;29.72;;;;;;;4.76;85.76;98807.28;1731334;82;25679;-64
2022/11/08 06:33:29;;;;;;;36.38;20.72;;;;;;;4.72;86.64;98816.50;1731456;82;26408;-64
2022/11/08 06:35:56;;;;;;;24.20;12.00;;;;;;;4.92;89.08;98814.87;1731289;82;25634;-64
2022/11/08 06:38:22;;;;;;;33.90;14.53;;;;;;;5.20;90.46;98811.85;1731800;82;27328;-64
2022/11/08 06:40:49;;;;;;;31.95;13.53;;;;;;;5.49;90.42;98820.23;1731156;82;25613;-64
2022/11/08 06:43:16;;;;;;;26.10;11.97;;;;;;;5.69;89.92;98815.81;1731219;82;25485;-64
2022/11/08 06:45:43;;;;;;;27.13;13.22;;;;;;;5.85;89.53;98811.15;1731080;82;25780;-64
2022/11/08 06:48:10;;;;;;;29.20;15.13;;;;;;;5.98;89.11;98817.05;1731120;82;25681;-64
2022/11/08 06:50:36;;;;;;;30.68;15.05;;;;;;;6.11;88.64;98815.14;1731115;82;27458;-64
2022/11/08 06:53:06;;;;;;;34.55;17.57;;;;;;;6.23;88.27;98824.86;1731096;82;25709;-64
2022/11/08 06:55:34;;;;;;;37.05;19.73;;;;;;;6.33;88.22;98811.19;1731071;82;25475;-64
2022/11/08 06:58:02;;;;;;;36.98;18.00;;;;;;;6.40;87.49;98810.31;1734980;82;25754;-64
2022/11/08 07:00:29;;;;;;;25.08;12.37;;;;;;;6.43;87.03;98817.13;1739467;82;25567;-64
2022/11/08 07:03:00;;;;;;;33.88;15.28;;;;;;;6.53;87.82;98817.59;1739294;82;27474;-64
2022/11/08 07:05:29;;;;;;;33.25;18.17;;;;;;;6.60;87.43;98819.47;1738723;82;25654;-64
2022/11/08 07:07:59;;;;;;;36.58;21.40;;;;;;;6.56;85.88;98820.31;1739570;82;25662;-64
2022/11/08 07:10:29;;;;;;;69.42;41.58;;;;;;;6.38;85.59;98817.97;1739606;82;26563;-64
2022/11/08 07:13:11;;;;;;;72.78;40.08;;;;;;;6.29;85.86;98819.66;1739905;82;25675;-64
2022/11/08 07:15:39;;;;;;;79.32;46.75;;;;;;;6.37;86.22;98829.14;1739766;82;27276;-65
2022/11/08 07:18:11;;;;;;;47.48;27.25;;;;;;;6.54;86.24;98828.77;1739190;82;25657;-65
2022/11/08 07:20:39;;;;;;;35.60;16.80;;;;;;;6.88;87.10;98826.59;1739991;82;25485;-65
2022/11/08 07:23:07;;;;;;;23.87;11.53;;;;;;;7.40;87.18;98826.13;1739175;82;25726;-65
2022/11/08 07:25:34;;;;;;;33.15;12.80;;;;;;;7.88;86.59;98826.42;1739378;82;25605;-65
2022/11/08 07:28:03;;;;;;;23.47;9.60;;;;;;;8.32;85.74;98825.05;1709708;82;27463;-65
2022/11/08 07:30:31;;;;;;;19.15;8.10;;;;;;;8.71;84.27;98816.30;1739557;82;25480;-65
2022/11/08 07:32:58;;;;;;;17.15;8.50;;;;;;;9.08;83.17;98818.72;1739623;82;25670;-65
2022/11/08 07:35:26;;;;;;;16.90;8.63;;;;;;;9.41;82.76;98814.57;1739353;82;25717;-66
2022/11/08 07:37:54;;;;;;;20.72;9.48;;;;;;;9.72;80.56;98817.83;1739556;82;25479;-65
2022/11/08 07:40:21;;;;;;;13.53;7.03;;;;;;;9.99;79.55;98814.84;1739570;82;27365;-65
2022/11/08 07:42:47;;;;;;;17.15;8.45;;;;;;;10.22;79.11;98815.70;1739181;82;25579;-66
2022/11/08 07:45:14;;;;;;;14.70;7.30;;;;;;;10.50;79.57;98814.30;1739249;82;25696;-66
2022/11/08 07:47:40;;;;;;;11.78;7.33;;;;;;;10.78;79.07;98812.02;1739435;82;25735;-66
2022/11/08 07:50:08;;;;;;;14.35;7.80;;;;;;;11.05;78.10;98817.10;1739382;82;25432;-66
2022/11/08 07:52:34;;;;;;;12.45;7.22;;;;;;;11.31;77.02;98821.14;1739568;82;27447;-66
2022/11/08 07:55:01;;;;;;;15.30;7.85;;;;;;;11.55;76.44;98818.02;1739308;81;25415;-66
2022/11/08 07:57:28;;;;;;;17.07;8.50;;;;;;;11.81;76.76;98818.69;1738276;82;25672;-66
2022/11/08 07:59:55;;;;;;;13.15;7.92;;;;;;;12.08;75.89;98815.47;1721585;83;26070;-66
2022/11/08 08:02:22;;;;;;;16.10;8.33;;;;;;;12.36;73.33;98816.56;1726203;83;25413;-66
2022/11/08 08:04:49;;;;;;;15.70;8.43;;;;;;;12.44;73.32;98819.64;1725448;83;28291;-66
2022/11/08 08:07:16;;;;;;;13.95;6.90;;;;;;;12.57;73.05;98826.09;1725564;83;25516;-66
2022/11/08 08:09:42;;;;;;;13.90;7.08;;;;;;;12.70;71.50;98833.95;1725367;83;25701;-66
2022/11/08 08:12:22;;;;;;;13.25;6.90;;;;;;;12.81;70.01;98828.36;1725294;83;25710;-66
2022/11/08 08:14:48;;;;;;;14.05;7.00;;;;;;;12.89;67.98;98824.80;1725810;83;25394;-66
2022/11/08 08:17:15;;;;;;;13.62;7.20;;;;;;;13.04;68.48;98826.23;1725597;83;27507;-66
2022/11/08 08:19:41;;;;;;;13.15;7.40;;;;;;;13.09;67.62;98823.88;1725260;83;25659;-66
2022/11/08 08:22:08;;;;;;;13.95;8.20;;;;;;;13.12;67.01;98820.48;1725349;83;25489;-65
2022/11/08 08:24:34;;;;;;;19.67;9.43;;;;;;;13.23;66.79;98827.00;1725255;82;25696;-66
2022/11/08 08:27:00;;;;;;;15.35;8.60;;;;;;;13.43;65.68;98820.81;1725552;83;25567;-65
2022/11/08 08:29:28;;;;;;;23.38;12.23;;;;;;;13.69;65.86;98827.37;1725618;82;27458;-65
2022/11/08 08:31:55;;;;;;;20.68;10.98;;;;;;;13.97;66.74;98820.05;1725774;83;25571;-65
2022/11/08 08:34:22;;;;;;;22.93;13.78;;;;;;;14.32;66.68;98830.03;1725676;83;25624;-66
2022/11/08 08:36:48;;;;;;;69.05;35.40;;;;;;;14.68;65.56;98823.11;1725316;83;25773;-65
2022/11/08 08:39:15;;;;;;;193.95;56.42;;;;;;;15.12;65.54;98832.16;1725741;83;25436;-65
2022/11/08 08:41:41;;;;;;;106.12;34.58;;;;;;;15.56;66.09;98839.97;1725701;83;27517;-66
2022/11/08 08:44:09;;;;;;;22.98;10.58;;;;;;;15.92;64.05;98830.09;1725318;83;25638;-65
2022/11/08 08:46:36;;;;;;;43.40;14.05;;;;;;;16.28;62.47;98835.98;1725582;83;25671;-65
2022/11/08 08:49:03;;;;;;;142.57;40.73;;;;;;;16.49;57.77;98832.23;1725573;83;25748;-65
2022/11/08 08:51:29;;;;;;;77.53;23.67;;;;;;;16.68;61.61;98834.96;1725875;81;25610;-65
2022/11/08 08:53:57;;;;;;;168.70;46.50;;;;;;;16.85;58.12;98829.72;1725777;83;29521;-65
2022/11/08 08:56:24;;;;;;;18.30;8.95;;;;;;;17.03;59.63;98835.75;1725763;83;25642;-65
2022/11/08 08:58:50;;;;;;;24.35;9.98;;;;;;;17.23;58.33;98835.09;1729826;82;25666;-65
2022/11/08 09:01:16;;;;;;;43.55;15.48;;;;;;;17.47;55.17;98836.13;1733766;82;25786;-65
2022/11/08 09:03:43;;;;;;;23.18;10.40;;;;;;;17.64;57.17;98832.19;1703829;84;25610;-65
2022/11/08 09:06:10;;;;;;;43.90;16.70;;;;;;;18.00;57.65;98836.42;1703404;84;27654;-65
2022/11/08 09:08:36;;;;;;;38.78;13.88;;;;;;;18.27;55.69;98833.89;1703308;84;25598;-65
2022/11/08 09:11:03;;;;;;;62.93;22.13;;;;;;;18.47;55.29;98850.00;1703290;84;25620;-65
2022/11/08 09:13:48;;;;;;;29.92;11.80;;;;;;;18.78;55.16;98852.45;1703597;84;25859;-65
2022/11/08 09:16:14;;;;;;;21.95;13.30;;;;;;;18.99;54.37;98843.52;1699439;84;25431;-64
2022/11/08 09:18:42;;;;;;;11.00;6.92;;;;;;;19.16;53.26;98845.07;1703400;84;29445;-64
2022/11/08 09:21:09;;;;;;;59.55;20.80;;;;;;;19.23;51.89;98841.64;1703310;84;25715;-64
2022/11/08 09:23:36;;;;;;;45.52;17.07;;;;;;;19.29;52.05;98838.17;1703522;84;25506;-64
2022/11/08 09:26:05;;;;;;;79.67;27.32;;;;;;;19.53;51.71;98844.57;1703218;84;25677;-63
2022/11/08 09:28:35;;;;;;;21.60;10.03;;;;;;;19.69;50.94;98836.70;1703488;84;25447;-64
2022/11/08 09:31:08;;;;;;;30.20;12.82;;;;;;;19.91;50.82;98831.47;1703877;84;27956;-64
2022/11/08 09:33:34;;;;;;;27.07;11.15;;;;;;;20.23;48.24;98827.63;1739400;82;25755;-64
2022/11/08 09:36:04;;;;;;;32.75;13.60;;;;;;;20.43;48.96;98824.10;1739115;82;25723;-63
2022/11/08 09:38:31;;;;;;;40.73;16.27;;;;;;;20.75;50.33;98827.11;1703881;84;25947;-62
2022/11/08 09:41:03;;;;;;;45.88;17.05;;;;;;;20.93;48.38;98823.17;1666879;85;25519;-61
2022/11/08 09:43:51;;;;;;;15.93;8.25;;;;;;;;;;1695667;84;28159;-64
2022/11/08 09:46:41;;;;;;;34.60;14.83;;;;;;;21.21;47.69;98819.69;1695929;84;25583;-64
2022/11/08 09:49:12;;;;;;;43.45;16.90;;;;;;;21.53;46.84;98819.20;1739304;82;26653;-62
2022/11/08 09:51:41;;;;;;;13.20;7.25;;;;;;;21.96;46.81;98819.37;1666879;86;25676;-63
2022/11/08 09:54:15;;;;;;;47.75;19.37;;;;;;;22.15;47.35;98812.13;1696024;84;25498;-62
2022/11/08 09:56:43;;;;;;;41.00;16.70;;;;;;;22.27;47.15;98811.58;1694907;84;27582;-62
2022/11/08 09:59:15;;;;;;;25.15;11.80;;;;;;;22.59;46.13;98808.19;1690762;84;25654;-62
2022/11/08 10:01:46;;;;;;;21.10;9.60;;;;;;;22.92;45.43;98807.73;1686029;85;25722;-63
2022/11/08 10:04:21;;;;;;;27.30;11.40;;;;;;;23.32;44.26;98805.62;1686121;85;25694;-63
2022/11/08 10:07:10;;;;;;;22.90;10.03;;;;;;;23.47;43.46;98803.66;1685789;84;25489;-62
2022/11/08 10:10:05;;;;;;;18.30;8.30;;;;;;;23.78;43.36;98794.25;1681332;85;27499;-62
2022/11/08 10:13:01;;;;;;;7.50;4.50;;;;;;;23.96;41.32;98798.23;1685391;85;27160;-62
2022/11/08 10:15:49;;;;;;;17.02;8.00;;;;;;;24.06;41.10;98791.23;1685731;85;25750;-62
2022/11/08 10:19:07;;;;;;;23.15;10.45;;;;;;;23.89;40.03;98793.47;1684995;82;25733;-62
2022/11/08 10:21:59;;;;;;;19.80;9.88;;;;;;;23.79;40.33;98790.87;1666352;85;25512;-62
2022/11/08 10:24:53;;;;;;;28.45;13.68;;;;;;;23.91;41.25;98784.86;1665769;86;28653;-62
2022/11/08 10:27:34;;;;;;;27.20;12.43;;;;;;;24.18;40.64;98786.45;1659691;86;25554;-62
2022/11/08 10:30:08;;;;;;;21.30;10.20;;;;;;;24.25;39.60;98778.03;1665988;86;25831;-64
2022/11/08 10:32:36;;;;;;;23.30;12.33;;;;;;;24.22;39.20;98776.63;1664402;86;25828;-64
2022/11/08 10:35:35;;;;;;;9.38;5.78;;;;;;;23.96;39.04;98771.66;1666287;86;25505;-64
2022/11/08 10:38:19;;;;;;;13.38;7.47;;;;;;;23.99;38.64;98768.86;1666181;86;27425;-62
2022/11/08 10:40:54;;;;;;;15.70;9.18;;;;;;;23.82;38.79;98767.68;1666157;86;25652;-62
2022/11/08 10:43:25;;;;;;;7.47;4.75;;;;;;;23.86;38.57;98764.27;1666276;86;25691;-62
2022/11/08 10:45:52;;;;;;;10.85;6.95;;;;;;;23.97;38.70;98767.67;1665595;86;25774;-62
2022/11/08 10:48:19;;;;;;;8.23;5.75;;;;;;;24.06;38.44;98766.63;1666016;86;25670;-62
2022/11/08 10:50:51;;;;;;;6.53;4.33;;;;;;;23.98;38.71;98764.47;1666209;86;27512;-62
2022/11/08 10:53:30;;;;;;;9.88;6.67;;;;;;;24.01;38.36;98762.86;1682151;85;25598;-62
2022/11/08 10:56:04;;;;;;;7.22;4.30;;;;;;;24.23;38.01;98750.24;1685971;85;25600;-63
2022/11/08 10:58:40;;;;;;;9.90;7.08;;;;;;;24.36;38.85;98752.80;1685781;84;25938;-62
2022/11/08 11:01:17;;;;;;;5.28;3.67;;;;;;;24.50;38.58;98750.55;1731548;82;25463;-62
2022/11/08 11:03:53;;;;;;;7.80;4.15;;;;;;;24.90;37.31;98748.94;1731508;82;28196;-62
2022/11/08 11:06:32;;;;;;;6.12;3.92;;;;;;;25.02;34.48;98742.67;1700052;82;26116;-62
2022/11/08 11:09:22;;;;;;;4.78;2.95;;;;;;;24.96;36.11;98743.72;1731499;82;25650;-63
2022/11/08 11:12:00;;;;;;;4.53;3.17;;;;;;;24.42;36.30;98742.77;1730933;82;25500;-62
2022/11/08 11:14:26;;;;;;;5.67;4.40;;;;;;;24.44;36.19;98739.56;1731724;82;25608;-62
2022/11/08 11:17:06;;;;;;;8.48;5.50;;;;;;;24.58;36.60;98742.87;1731345;82;27458;-62
2022/11/08 11:19:33;;;;;;;5.97;4.33;;;;;;;24.59;36.33;98735.28;1731158;82;25886;-62
2022/11/08 11:22:06;;;;;;;5.83;4.15;;;;;;;24.53;37.02;98734.91;1731716;82;25689;-62
2022/11/08 11:24:35;;;;;;;4.90;3.90;;;;;;;24.58;36.39;98736.50;1731708;82;25772;-62
2022/11/08 11:27:05;;;;;;;5.97;3.92;;;;;;;24.71;36.76;98732.61;1731915;82;25674;-62
2022/11/08 11:29:37;;;;;;;3.25;2.65;;;;;;;24.80;36.70;98729.56;1731732;82;27768;-62
2022/11/08 11:32:27;;;;;;;5.97;4.42;;;;;;;24.92;35.75;98726.91;1731629;82;25745;-62
2022/11/08 11:35:00;;;;;;;4.67;3.80;;;;;;;25.15;36.64;98726.15;1728945;82;25763;-62
2022/11/08 11:37:40;;;;;;;4.83;3.67;;;;;;;25.21;36.41;98727.31;1731697;82;25731;-62
2022/11/08 11:40:30;;;;;;;3.47;3.00;;;;;;;25.38;36.35;98726.17;1731704;82;25459;-62
2022/11/08 11:43:20;;;;;;;5.28;4.30;;;;;;;25.59;35.54;98719.59;1731181;82;27585;-62
2022/11/08 11:46:10;;;;;;;3.83;3.27;;;;;;;25.77;35.56;98718.05;1731180;82;25423;-62
2022/11/08 11:48:48;;;;;;;4.70;3.00;;;;;;;25.89;35.51;98715.91;1731428;82;25439;-62
2022/11/08 11:51:15;;;;;;;3.65;2.50;;;;;;;25.67;35.66;98722.54;1731760;82;25743;-62
2022/11/08 11:53:42;;;;;;;3.85;3.15;;;;;;;25.70;35.88;98719.50;1731369;82;25626;-62
2022/11/08 11:56:33;;;;;;;4.17;3.17;;;;;;;25.88;35.73;98721.34;1731277;82;29609;-62
2022/11/08 11:59:43;;;;;;;4.33;2.90;;;;;;;26.15;34.92;98713.62;1730524;82;25717;-62
2022/11/08 12:02:43;;;;;;;6.17;3.37;;;;;;;26.23;34.12;98722.16;1732085;82;25423;-62